createdAt,value
2017-05-02T00:02:02.917Z,22.35
2017-05-02T00:04:30.555Z,21.87
2017-05-02T00:06:58.200Z,19.93
2017-05-02T00:09:25.836Z,21.45
2017-05-02T00:11:53.468Z,17.50
2017-05-02T00:14:21.068Z,14.52
2017-05-02T00:16:48.651Z,12.80
2017-05-02T00:19:16.980Z,11.80
2017-05-02T00:21:44.567Z,20.27
2017-05-02T00:24:13.368Z,11.38
2017-05-02T00:26:40.979Z,10.78
2017-05-02T00:29:09.328Z,10.55
2017-05-02T00:31:37.648Z,10.53
2017-05-02T00:34:05.249Z,10.85
2017-05-02T00:36:33.509Z,9.50
2017-05-02T00:39:01.089Z,9.37
2017-05-02T00:41:28.694Z,9.47
2017-05-02T00:43:57.049Z,9.17
2017-05-02T00:46:24.666Z,10.28
2017-05-02T00:48:52.304Z,9.65
2017-05-02T00:51:19.868Z,9.12
2017-05-02T00:53:47.471Z,10.70
2017-05-02T00:56:15.132Z,11.00
2017-05-02T00:58:42.763Z,7.68
2017-05-02T01:01:10.337Z,9.93
2017-05-02T01:03:37.948Z,12.33
2017-05-02T01:06:05.480Z,9.62
2017-05-02T01:08:33.025Z,8.83
2017-05-02T01:11:00.672Z,9.48
2017-05-02T01:13:28.313Z,8.03
2017-05-02T01:15:55.957Z,6.58
2017-05-02T01:18:23.536Z,8.72
2017-05-02T01:20:51.208Z,7.88
2017-05-02T01:23:18.762Z,7.08
2017-05-02T01:25:46.381Z,8.18
2017-05-02T01:28:14.972Z,7.88
2017-05-02T01:30:42.643Z,7.88
2017-05-02T01:33:10.273Z,8.78
2017-05-02T01:35:37.923Z,7.23
2017-05-02T01:38:06.256Z,6.10
2017-05-02T01:40:33.856Z,7.35
2017-05-02T01:43:01.473Z,7.33
2017-05-02T01:45:29.777Z,6.25
2017-05-02T01:47:57.520Z,8.58
2017-05-02T01:50:25.110Z,8.23
2017-05-02T01:52:52.715Z,7.30
2017-05-02T01:55:20.379Z,6.67
2017-05-02T01:57:47.958Z,6.45
2017-05-02T02:00:15.543Z,7.00
2017-05-02T02:02:43.885Z,10.30
2017-05-02T02:05:11.508Z,7.02
2017-05-02T02:07:39.784Z,9.82
2017-05-02T02:10:07.422Z,6.25
2017-05-02T02:12:35.036Z,10.62
2017-05-02T02:15:02.633Z,7.90
2017-05-02T02:17:30.202Z,7.32
2017-05-02T02:19:57.748Z,8.57
2017-05-02T02:22:25.307Z,8.48
2017-05-02T02:24:52.951Z,6.90
2017-05-02T02:27:20.559Z,5.63
2017-05-02T02:29:48.177Z,6.25
2017-05-02T02:32:16.564Z,5.82
2017-05-02T02:34:45.008Z,7.40
2017-05-02T02:37:13.690Z,7.90
2017-05-02T02:39:41.256Z,8.98
2017-05-02T02:42:08.851Z,7.48
2017-05-02T02:44:36.396Z,6.65
2017-05-02T02:47:03.991Z,10.13
2017-05-02T02:49:31.640Z,5.62
2017-05-02T02:51:59.247Z,13.42
2017-05-02T02:54:26.068Z,8.97
2017-05-02T02:56:54.392Z,6.38
2017-05-02T02:59:21.961Z,7.80
2017-05-02T03:01:49.528Z,7.02
2017-05-02T03:04:17.108Z,6.65
2017-05-02T03:06:44.708Z,8.42
2017-05-02T03:09:13.785Z,8.85
2017-05-02T03:11:42.091Z,10.62
2017-05-02T03:14:09.695Z,9.68
2017-05-02T03:16:37.288Z,6.15
2017-05-02T03:19:04.908Z,7.87
2017-05-02T03:21:32.480Z,9.08
2017-05-02T03:24:00.100Z,8.05
2017-05-02T03:26:27.699Z,7.75
2017-05-02T03:28:56.085Z,8.53
2017-05-02T03:31:23.680Z,10.85
2017-05-02T03:33:51.273Z,10.57
2017-05-02T03:36:18.905Z,9.42
2017-05-02T03:38:46.547Z,9.37
2017-05-02T03:41:14.875Z,8.18
2017-05-02T03:43:42.492Z,8.53
2017-05-02T03:46:10.108Z,8.37
2017-05-02T03:48:38.429Z,7.90
2017-05-02T03:51:06.032Z,9.73
2017-05-02T03:53:33.705Z,12.32
2017-05-02T03:56:01.389Z,9.77
2017-05-02T03:58:28.933Z,8.83
2017-05-02T04:00:57.216Z,8.15
2017-05-02T04:03:24.760Z,9.85
2017-05-02T04:05:52.384Z,8.15
2017-05-02T04:08:19.976Z,9.68
2017-05-02T04:10:47.616Z,6.92
2017-05-02T04:13:15.235Z,10.55
2017-05-02T04:15:42.863Z,11.13
2017-05-02T04:18:11.457Z,10.38
2017-05-02T04:20:39.024Z,12.43
2017-05-02T04:23:06.644Z,12.37
2017-05-02T04:25:33.453Z,10.40
2017-05-02T04:28:01.008Z,12.97
2017-05-02T04:30:28.656Z,9.08
2017-05-02T04:32:56.204Z,9.90
2017-05-02T04:35:23.792Z,9.93
2017-05-02T04:37:51.411Z,10.35
2017-05-02T04:40:19.099Z,11.87
2017-05-02T04:42:46.681Z,13.60
2017-05-02T04:45:14.640Z,12.78
2017-05-02T04:47:42.217Z,11.28
2017-05-02T04:50:09.856Z,11.15
2017-05-02T04:52:37.460Z,9.57
2017-05-02T04:55:05.046Z,8.55
2017-05-02T04:57:32.647Z,7.62
2017-05-02T05:00:00.259Z,9.98
2017-05-02T05:02:27.124Z,11.37
2017-05-02T05:04:54.720Z,10.90
2017-05-02T05:07:22.357Z,11.45
2017-05-02T05:09:50.012Z,9.18
2017-05-02T05:12:17.611Z,9.68
2017-05-02T05:14:45.171Z,12.72
2017-05-02T05:17:12.715Z,12.23
2017-05-02T05:19:40.284Z,10.57
2017-05-02T05:22:07.878Z,13.62
2017-05-02T05:24:35.498Z,13.85
2017-05-02T05:27:03.080Z,12.77
2017-05-02T05:29:30.728Z,16.48
2017-05-02T05:31:58.356Z,11.92
2017-05-02T05:34:25.905Z,13.50
2017-05-02T05:36:53.543Z,10.53
2017-05-02T05:39:21.158Z,11.98
2017-05-02T05:41:48.848Z,12.93
2017-05-02T05:44:16.481Z,11.75
2017-05-02T05:46:44.844Z,13.80
2017-05-02T05:49:12.435Z,18.55
2017-05-02T05:51:40.052Z,11.58
2017-05-02T05:54:07.612Z,12.93
2017-05-02T05:56:35.201Z,13.73
2017-05-02T05:59:03.564Z,12.63
2017-05-02T06:01:31.891Z,14.53
2017-05-02T06:03:59.512Z,10.82
2017-05-02T06:06:27.175Z,10.08
2017-05-02T06:08:54.756Z,15.03
2017-05-02T06:11:23.080Z,8.80
2017-05-02T06:13:50.688Z,12.15
2017-05-02T06:16:18.299Z,11.50
2017-05-02T06:18:45.856Z,10.13
2017-05-02T06:21:14.540Z,10.37
2017-05-02T06:23:42.113Z,13.75
2017-05-02T06:26:09.677Z,10.97
2017-05-02T06:28:37.325Z,12.42
2017-05-02T06:31:04.956Z,11.33
2017-05-02T06:33:32.572Z,9.85
2017-05-02T06:36:00.280Z,9.43
2017-05-02T06:38:27.908Z,11.22
2017-05-02T06:40:55.500Z,11.17
2017-05-02T06:43:23.169Z,13.35
2017-05-02T06:45:50.816Z,9.85
2017-05-02T06:48:18.432Z,12.33
2017-05-02T06:50:46.775Z,11.10
2017-05-02T06:53:15.256Z,16.45
2017-05-02T06:55:43.815Z,14.60
2017-05-02T06:58:11.362Z,12.12
2017-05-02T07:00:39.700Z,12.82
2017-05-02T07:03:07.308Z,12.87
2017-05-02T07:05:34.910Z,15.75
2017-05-02T07:08:04.384Z,14.78
2017-05-02T07:10:31.992Z,14.70
2017-05-02T07:12:59.628Z,14.35
2017-05-02T07:15:27.312Z,13.73
2017-05-02T07:17:54.897Z,11.77
2017-05-02T07:20:22.451Z,16.65
2017-05-02T07:22:50.020Z,8.58
2017-05-02T07:25:17.637Z,11.00
2017-05-02T07:27:46.859Z,10.58
2017-05-02T07:30:15.496Z,10.50
2017-05-02T07:32:43.665Z,9.07
2017-05-02T07:35:11.735Z,13.93
2017-05-02T07:37:40.377Z,9.92
2017-05-02T07:40:08.008Z,11.27
2017-05-02T07:42:36.388Z,10.17
2017-05-02T07:45:03.996Z,11.35
2017-05-02T07:47:32.370Z,14.58
2017-05-02T07:50:00.715Z,10.62
2017-05-02T07:52:28.352Z,8.90
2017-05-02T07:54:55.910Z,13.33
2017-05-02T07:57:24.576Z,14.92
2017-05-02T07:59:52.940Z,11.42
2017-05-02T08:02:21.316Z,13.20
2017-05-02T08:04:48.964Z,9.45
2017-05-02T08:07:16.590Z,14.05
2017-05-02T08:09:44.564Z,12.12
2017-05-02T08:12:11.508Z,11.73
2017-05-02T08:14:39.078Z,9.47
2017-05-02T08:17:06.688Z,9.55
2017-05-02T08:19:34.320Z,11.70
2017-05-02T08:22:01.973Z,13.27
2017-05-02T08:24:29.600Z,11.18
2017-05-02T08:26:58.021Z,8.72
2017-05-02T08:29:25.619Z,10.42
2017-05-02T08:31:53.940Z,9.27
2017-05-02T08:34:21.568Z,8.98
2017-05-02T08:36:49.192Z,11.07
2017-05-02T08:39:16.811Z,8.90
2017-05-02T08:41:45.287Z,10.03
2017-05-02T08:44:13.648Z,8.32
2017-05-02T08:46:42.019Z,12.85
2017-05-02T08:49:09.680Z,15.55
2017-05-02T08:51:37.301Z,12.95
2017-05-02T08:54:04.951Z,13.07
2017-05-02T08:56:32.641Z,12.67
2017-05-02T08:59:00.240Z,11.58
2017-05-02T09:01:27.879Z,11.50
2017-05-02T09:03:56.259Z,14.48
2017-05-02T09:06:23.936Z,12.02
2017-05-02T09:08:52.296Z,16.22
2017-05-02T09:11:19.989Z,12.55
2017-05-02T09:13:47.637Z,12.45
2017-05-02T09:16:15.556Z,13.38
2017-05-02T09:18:43.966Z,14.47
2017-05-02T09:21:11.531Z,13.90
2017-05-02T09:23:39.161Z,14.20
2017-05-02T09:26:06.816Z,15.07
2017-05-02T09:28:34.573Z,18.87
2017-05-02T09:31:02.318Z,17.92
2017-05-02T09:33:30.033Z,15.22
2017-05-02T09:35:58.414Z,16.20
2017-05-02T09:38:26.008Z,12.17
2017-05-02T09:40:53.632Z,17.85
2017-05-02T09:43:21.762Z,15.75
2017-05-02T09:45:49.373Z,14.43
2017-05-02T09:48:17.742Z,14.83
2017-05-02T09:50:46.126Z,13.72
2017-05-02T09:53:14.285Z,13.48
2017-05-02T09:55:41.888Z,14.17
2017-05-02T09:58:09.492Z,14.58
2017-05-02T10:00:37.823Z,16.87
2017-05-02T10:03:05.446Z,13.40
2017-05-02T10:05:33.180Z,15.25
2017-05-02T10:08:00.751Z,15.90
2017-05-02T10:10:28.376Z,13.97
2017-05-02T10:12:56.021Z,15.13
2017-05-02T10:15:23.588Z,15.12
2017-05-02T10:17:51.289Z,15.22
2017-05-02T10:20:18.940Z,10.35
2017-05-02T10:22:46.527Z,12.85
2017-05-02T10:25:15.064Z,12.30
2017-05-02T10:27:42.603Z,13.53
2017-05-02T10:30:10.163Z,13.82
2017-05-02T10:32:37.776Z,14.98
2017-05-02T10:35:05.372Z,12.98
2017-05-02T10:37:32.941Z,14.17
2017-05-02T10:40:01.268Z,16.15
2017-05-02T10:42:29.239Z,15.82
2017-05-02T10:44:56.897Z,12.72
2017-05-02T10:47:25.256Z,12.58
2017-05-02T10:49:52.812Z,12.92
2017-05-02T10:52:20.446Z,12.45
2017-05-02T10:54:47.287Z,13.55
2017-05-02T10:57:14.903Z,13.10
2017-05-02T10:59:42.500Z,12.88
2017-05-02T11:02:10.124Z,12.92
2017-05-02T11:04:38.531Z,13.78
2017-05-02T11:07:06.091Z,13.27
2017-05-02T11:09:33.640Z,13.13
2017-05-02T11:12:01.300Z,13.00
2017-05-02T11:14:28.873Z,14.47
2017-05-02T11:16:56.436Z,14.40
2017-05-02T11:19:24.060Z,13.55
2017-05-02T11:21:52.383Z,14.08
2017-05-02T11:24:21.016Z,14.35
2017-05-02T11:26:48.596Z,15.90
2017-05-02T11:29:16.135Z,18.90
2017-05-02T11:31:43.994Z,15.82
2017-05-02T11:34:11.577Z,17.77
2017-05-02T11:36:39.864Z,19.37
2017-05-02T11:39:07.485Z,17.52
2017-05-02T11:41:35.124Z,16.50
2017-05-02T11:44:03.404Z,17.92
2017-05-02T11:46:31.015Z,15.32
2017-05-02T11:48:59.413Z,21.88
2017-05-02T11:51:27.298Z,21.40
2017-05-02T11:53:54.917Z,18.57
2017-05-02T11:56:22.491Z,20.62
2017-05-02T11:58:50.129Z,21.12
2017-05-02T12:01:17.768Z,23.38
2017-05-02T12:03:45.414Z,24.98
2017-05-02T12:06:13.039Z,23.18
2017-05-02T12:08:40.980Z,20.45
2017-05-02T12:11:08.547Z,25.18
2017-05-02T12:13:36.249Z,26.38
2017-05-02T12:16:04.680Z,31.85
2017-05-02T12:18:32.292Z,27.45
2017-05-02T12:20:59.922Z,26.62
2017-05-02T12:23:27.588Z,27.52
2017-05-02T12:25:55.189Z,29.17
2017-05-02T12:28:23.551Z,30.32
2017-05-02T12:30:51.194Z,30.25
2017-05-02T12:33:19.914Z,31.00
2017-05-02T12:35:47.511Z,29.75
2017-05-02T12:38:15.112Z,28.75
2017-05-02T12:40:42.708Z,22.78
2017-05-02T12:43:10.998Z,29.62
2017-05-02T12:45:38.752Z,29.75
2017-05-02T12:48:06.335Z,27.97
2017-05-02T12:50:33.952Z,34.62
2017-05-02T12:53:01.623Z,32.02
2017-05-02T12:57:56.976Z,30.60
2017-05-02T13:00:24.607Z,33.90
2017-05-02T13:02:52.192Z,28.72
2017-05-02T13:05:19.732Z,32.23
2017-05-02T13:07:47.348Z,34.93
2017-05-02T13:10:14.956Z,31.27
2017-05-02T13:12:42.541Z,42.65
2017-05-02T13:15:10.181Z,39.08
2017-05-02T13:17:37.825Z,39.07
2017-05-02T13:20:05.436Z,35.95
2017-05-02T13:22:33.772Z,39.98
2017-05-02T13:25:01.389Z,41.87
2017-05-02T13:27:29.021Z,44.18
2017-05-02T13:29:56.662Z,36.87
2017-05-02T13:32:24.297Z,35.33
2017-05-02T13:34:51.944Z,35.22
2017-05-02T13:37:19.592Z,44.17
2017-05-02T13:39:47.127Z,40.80
2017-05-02T13:42:15.600Z,41.05
2017-05-02T13:44:43.716Z,48.67
2017-05-02T13:47:11.303Z,42.58
2017-05-02T13:49:38.944Z,49.42
2017-05-02T13:52:06.540Z,45.33
2017-05-02T13:54:34.143Z,44.77
2017-05-02T13:57:01.758Z,43.62
2017-05-02T13:59:30.080Z,39.73
2017-05-02T14:01:57.634Z,41.25
2017-05-02T14:04:25.238Z,50.80
2017-05-02T14:06:52.920Z,51.85
2017-05-02T14:09:20.520Z,41.70
2017-05-02T14:11:48.113Z,48.97
2017-05-02T14:14:15.756Z,45.18
2017-05-02T14:16:43.467Z,40.82
2017-05-02T14:19:11.129Z,44.65
2017-05-02T14:21:38.702Z,43.12
2017-05-02T14:24:06.325Z,44.48
2017-05-02T14:26:33.944Z,43.20
2017-05-02T14:29:01.919Z,45.80
2017-05-02T14:31:29.560Z,43.38
2017-05-02T14:33:57.160Z,38.80
2017-05-02T14:36:24.820Z,39.72
2017-05-02T14:38:52.385Z,40.98
2017-05-02T14:41:20.038Z,43.68
2017-05-02T14:43:47.612Z,46.75
2017-05-02T14:46:15.286Z,43.77
2017-05-02T14:48:44.140Z,49.40
2017-05-02T14:51:11.745Z,47.38
2017-05-02T14:53:39.393Z,41.57
2017-05-02T14:56:07.017Z,40.48
2017-05-02T14:58:34.629Z,37.58
2017-05-02T15:01:02.241Z,43.88
2017-05-02T15:03:29.876Z,45.20
2017-05-02T15:05:57.505Z,40.62
2017-05-02T15:08:25.550Z,37.60
2017-05-02T15:10:53.172Z,42.17
2017-05-02T15:13:20.830Z,40.38
2017-05-02T15:15:48.366Z,38.65
2017-05-02T15:18:16.048Z,41.93
2017-05-02T15:20:43.956Z,42.05
2017-05-02T15:23:12.328Z,41.53
2017-05-02T15:25:40.603Z,40.43
2017-05-02T15:28:08.122Z,42.83
2017-05-02T15:30:35.688Z,45.43
2017-05-02T15:33:03.273Z,41.77
2017-05-02T15:35:30.868Z,42.20
2017-05-02T15:37:58.488Z,46.88
2017-05-02T15:40:26.101Z,48.30
2017-05-02T15:42:53.705Z,40.08
2017-05-02T15:45:21.288Z,36.43
2017-05-02T15:47:48.907Z,45.32
2017-05-02T15:50:16.448Z,45.78
2017-05-02T15:52:44.521Z,45.98
2017-05-02T15:55:12.121Z,43.65
2017-05-02T15:57:40.463Z,41.50
2017-05-02T16:00:08.063Z,41.68
2017-05-02T16:02:35.600Z,47.08
2017-05-02T16:05:03.237Z,48.33
2017-05-02T16:07:30.828Z,37.03
2017-05-02T16:09:58.510Z,45.20
2017-05-02T16:12:25.408Z,43.12
2017-05-02T16:14:53.005Z,40.67
2017-05-02T16:17:20.588Z,44.67
2017-05-02T16:19:48.197Z,48.93
2017-05-02T16:22:15.851Z,43.87
2017-05-02T16:24:43.474Z,46.63
2017-05-02T16:27:11.895Z,47.10
2017-05-02T16:29:39.500Z,41.55
2017-05-02T16:32:07.144Z,43.87
2017-05-02T16:34:35.816Z,51.20
2017-05-02T16:37:03.456Z,41.73
2017-05-02T16:39:31.097Z,44.28
2017-05-02T16:41:58.653Z,47.62
2017-05-02T16:44:26.355Z,45.77
2017-05-02T16:46:54.723Z,44.30
2017-05-02T16:49:23.192Z,51.15
2017-05-02T16:51:51.553Z,39.75
2017-05-02T16:54:19.860Z,44.50
2017-05-02T16:56:47.471Z,44.28
2017-05-02T16:59:15.121Z,41.50
2017-05-02T17:01:42.750Z,44.68
2017-05-02T17:04:11.455Z,40.70
2017-05-02T17:06:39.097Z,40.90
2017-05-02T17:09:06.684Z,40.35
2017-05-02T17:11:34.272Z,43.22
2017-05-02T17:14:01.839Z,39.47
2017-05-02T17:16:29.372Z,47.92
2017-05-02T17:18:56.943Z,45.95
2017-05-02T17:21:24.628Z,47.47
2017-05-02T17:23:52.956Z,50.95
2017-05-02T17:26:20.537Z,52.13
2017-05-02T17:28:48.908Z,48.13
2017-05-02T17:31:16.472Z,48.80
2017-05-02T17:33:44.336Z,39.03
2017-05-02T17:36:12.140Z,43.97
2017-05-02T17:38:40.505Z,51.43
2017-05-02T17:41:08.233Z,42.98
2017-05-02T17:43:35.927Z,43.25
2017-05-02T17:46:03.579Z,46.98
2017-05-02T17:48:31.217Z,48.32
2017-05-02T17:50:58.841Z,40.22
2017-05-02T17:53:26.607Z,56.37
2017-05-02T17:55:54.293Z,45.07
2017-05-02T17:58:22.173Z,37.97
2017-05-02T18:00:51.151Z,43.07
2017-05-02T18:03:19.307Z,42.67
2017-05-02T18:05:47.563Z,43.97
2017-05-02T18:08:15.997Z,45.07
2017-05-02T18:10:45.445Z,40.77
2017-05-02T18:13:14.187Z,39.75
2017-05-02T18:15:42.694Z,46.82
2017-05-02T18:18:11.511Z,42.73
2017-05-02T18:20:40.946Z,44.37
2017-05-02T18:23:10.282Z,46.20
2017-05-02T18:25:39.728Z,34.13
2017-05-02T18:28:09.794Z,25.08
2017-05-02T18:30:39.430Z,20.50
2017-05-02T18:33:08.953Z,22.23
2017-05-02T18:35:38.568Z,17.98
2017-05-02T18:38:09.058Z,17.02
2017-05-02T18:40:38.647Z,16.05
2017-05-02T18:43:08.126Z,20.45
2017-05-02T18:45:37.623Z,16.62
2017-05-02T18:48:07.207Z,13.98
2017-05-02T18:50:37.687Z,19.08
2017-05-02T18:53:07.335Z,15.18
2017-05-02T18:55:36.880Z,15.53
2017-05-02T18:58:06.647Z,15.03
2017-05-02T19:00:35.963Z,15.92
2017-05-02T19:03:05.638Z,18.07
2017-05-02T19:05:35.248Z,18.03
2017-05-02T19:08:05.355Z,16.98
2017-05-02T19:10:34.828Z,18.10
2017-05-02T19:13:04.438Z,19.18
2017-05-02T19:15:34.001Z,15.02
2017-05-02T19:18:04.324Z,18.07
2017-05-02T19:20:33.930Z,16.03
2017-05-02T19:23:03.563Z,18.87
2017-05-02T19:25:33.047Z,18.53
2017-05-02T19:28:02.694Z,19.80
2017-05-02T19:30:32.288Z,15.30
2017-05-02T19:33:01.879Z,13.83
2017-05-02T19:35:31.587Z,14.88
2017-05-02T19:38:01.101Z,10.17
2017-05-02T19:40:30.783Z,14.07
2017-05-02T19:43:00.263Z,9.58
2017-05-02T19:45:29.947Z,12.38
2017-05-02T19:47:59.473Z,15.98
2017-05-02T19:50:29.151Z,10.47
2017-05-02T19:52:58.982Z,14.77
2017-05-02T19:55:29.470Z,16.02
2017-05-02T19:57:58.953Z,13.27
2017-05-02T20:00:28.568Z,13.22
2017-05-02T20:02:58.098Z,13.93
2017-05-02T20:05:27.815Z,16.73
2017-05-02T20:07:57.409Z,14.02
2017-05-02T20:10:26.967Z,16.12
2017-05-02T20:12:56.632Z,16.10
2017-05-02T20:15:26.810Z,14.52
2017-05-02T20:17:56.528Z,11.77
2017-05-02T20:20:26.697Z,14.47
2017-05-02T20:22:56.379Z,18.43
2017-05-02T20:25:25.753Z,14.28
2017-05-02T20:27:55.332Z,16.17
2017-05-02T20:30:24.862Z,12.98
2017-05-02T20:32:54.280Z,12.25
2017-05-02T20:35:24.670Z,9.27
2017-05-02T20:37:54.126Z,8.23
2017-05-02T20:40:23.769Z,7.25
2017-05-02T20:42:53.436Z,7.62
2017-05-02T20:45:22.085Z,7.17
2017-05-02T20:47:51.244Z,5.92
2017-05-02T20:50:19.390Z,6.13
2017-05-02T20:52:47.384Z,7.35
2017-05-02T20:55:15.321Z,5.67
2017-05-02T20:57:43.007Z,5.73
2017-05-02T21:00:11.052Z,6.25
2017-05-02T21:02:38.834Z,6.65
2017-05-02T21:05:06.499Z,4.43
2017-05-02T21:07:34.260Z,6.30
2017-05-02T21:10:01.856Z,4.90
2017-05-02T21:12:29.443Z,7.38
2017-05-02T21:14:57.081Z,8.18
2017-05-02T21:17:24.708Z,12.30
2017-05-02T21:19:52.354Z,8.82
2017-05-02T21:22:19.991Z,9.13
2017-05-02T21:24:47.628Z,10.62
2017-05-02T21:27:15.255Z,10.77
2017-05-02T21:29:43.996Z,11.37
2017-05-02T21:32:11.592Z,7.98
2017-05-02T21:34:39.215Z,10.63
2017-05-02T21:37:07.553Z,9.60
2017-05-02T21:39:35.192Z,10.10
2017-05-02T21:42:02.804Z,9.90
2017-05-02T21:44:30.368Z,10.32
2017-05-02T21:46:57.920Z,9.17
2017-05-02T21:49:25.529Z,9.10
2017-05-02T21:51:53.108Z,11.02
2017-05-02T21:54:20.732Z,9.87
2017-05-02T21:56:48.395Z,8.80
2017-05-02T21:59:16.021Z,10.52
2017-05-02T22:01:44.035Z,9.78
2017-05-02T22:04:11.644Z,11.12
2017-05-02T22:06:39.292Z,13.33
2017-05-02T22:09:06.887Z,11.80
2017-05-02T22:11:34.506Z,12.17
2017-05-02T22:14:02.128Z,11.77
2017-05-02T22:16:29.767Z,12.27
2017-05-02T22:18:57.368Z,9.73
2017-05-02T22:21:25.017Z,6.72
2017-05-02T22:23:52.613Z,6.03
2017-05-02T22:26:20.216Z,8.87
2017-05-02T22:28:47.774Z,4.23
2017-05-02T22:31:15.340Z,6.18
2017-05-02T22:33:42.948Z,4.23
2017-05-02T22:36:10.490Z,5.35
2017-05-02T22:38:38.304Z,2.90
2017-05-02T22:41:06.632Z,3.17
2017-05-02T22:43:34.694Z,2.65
2017-05-02T22:46:02.336Z,4.02
2017-05-02T22:48:29.929Z,3.38
2017-05-02T22:50:58.180Z,4.77
2017-05-02T22:53:25.774Z,10.45
2017-05-02T22:55:53.416Z,4.17
2017-05-02T22:58:21.062Z,5.48
2017-05-02T23:00:48.652Z,6.27
2017-05-02T23:03:16.197Z,6.10
2017-05-02T23:05:43.769Z,6.47
2017-05-02T23:08:11.388Z,6.40
2017-05-02T23:10:38.944Z,10.42
2017-05-02T23:13:06.581Z,8.23
2017-05-02T23:15:34.148Z,7.73
2017-05-02T23:18:02.502Z,12.40
2017-05-02T23:20:30.871Z,11.23
2017-05-02T23:22:59.162Z,12.60
2017-05-02T23:25:26.755Z,12.83
2017-05-02T23:27:54.417Z,13.87
2017-05-02T23:30:21.959Z,15.43
2017-05-02T23:32:50.304Z,14.15
2017-05-02T23:35:17.880Z,12.42
2017-05-02T23:37:46.200Z,14.85
2017-05-02T23:40:13.741Z,12.80
2017-05-02T23:42:41.424Z,12.18
2017-05-02T23:45:10.104Z,15.52
2017-05-02T23:47:37.752Z,13.43
2017-05-02T23:50:05.400Z,15.03
2017-05-02T23:52:32.976Z,15.75
2017-05-02T23:55:00.628Z,15.67
2017-05-02T23:57:28.229Z,13.20
2017-05-02T23:59:55.896Z,14.52
